sensor_id;sensor_type;location;lat;lon;timestamp;P1;durP1;ratioP1;P2;durP2;ratioP2
60896;SDS011;46749;32.932;-117.130;2023-04-25T00:01:20;4.22;;;1.30;;
60896;SDS011;46749;32.932;-117.130;2023-04-25T00:03:49;3.72;;;1.30;;
60896;SDS011;46749;32.932;-117.130;2023-04-25T00:06:16;2.83;;;1.27;;
60896;SDS011;46749;32.932;-117.130;2023-04-25T00:08:43;1.90;;;1.13;;
60896;SDS011;46749;32.932;-117.130;2023-04-25T00:11:09;3.50;;;1.38;;
60896;SDS011;46749;32.932;-117.130;2023-04-25T00:13:35;3.67;;;1.40;;
60896;SDS011;46749;32.932;-117.130;2023-04-25T00:16:02;3.50;;;1.30;;
60896;SDS011;46749;32.932;-117.130;2023-04-25T00:18:29;3.72;;;1.38;;
60896;SDS011;46749;32.932;-117.130;2023-04-25T00:20:58;2.30;;;1.10;;
60896;SDS011;46749;32.932;-117.130;2023-04-25T00:23:24;3.97;;;1.15;;
60896;SDS011;46749;32.932;-117.130;2023-04-25T00:25:51;3.38;;;1.30;;
60896;SDS011;46749;32.932;-117.130;2023-04-25T00:28:17;3.88;;;1.40;;
60896;SDS011;46749;32.932;-117.130;2023-04-25T00:30:43;2.10;;;1.00;;
60896;SDS011;46749;32.932;-117.130;2023-04-25T00:33:10;5.57;;;1.20;;
60896;SDS011;46749;32.932;-117.130;2023-04-25T00:35:36;4.15;;;1.40;;
60896;SDS011;46749;32.932;-117.130;2023-04-25T00:38:02;4.22;;;1.35;;
60896;SDS011;46749;32.932;-117.130;2023-04-25T00:40:28;3.13;;;1.20;;
60896;SDS011;46749;32.932;-117.130;2023-04-25T00:42:55;2.72;;;1.42;;
60896;SDS011;46749;32.932;-117.130;2023-04-25T00:45:21;5.03;;;1.58;;
60896;SDS011;46749;32.932;-117.130;2023-04-25T00:47:52;2.88;;;1.20;;
60896;SDS011;46749;32.932;-117.130;2023-04-25T00:50:19;2.67;;;1.33;;
60896;SDS011;46749;32.932;-117.130;2023-04-25T00:52:46;4.53;;;1.42;;
60896;SDS011;46749;32.932;-117.130;2023-04-25T00:55:12;4.43;;;1.30;;
60896;SDS011;46749;32.932;-117.130;2023-04-25T00:57:40;4.65;;;1.10;;
60896;SDS011;46749;32.932;-117.130;2023-04-25T01:00:08;2.75;;;1.30;;
60896;SDS011;46749;32.932;-117.130;2023-04-25T01:02:36;3.33;;;1.20;;
60896;SDS011;46749;32.932;-117.130;2023-04-25T01:05:03;3.38;;;1.20;;
60896;SDS011;46749;32.932;-117.130;2023-04-25T01:07:29;2.83;;;1.00;;
60896;SDS011;46749;32.932;-117.130;2023-04-25T01:09:56;1.52;;;0.93;;
60896;SDS011;46749;32.932;-117.130;2023-04-25T01:12:23;2.92;;;1.27;;
60896;SDS011;46749;32.932;-117.130;2023-04-25T01:14:49;3.00;;;1.10;;
60896;SDS011;46749;32.932;-117.130;2023-04-25T01:17:15;3.30;;;0.90;;
60896;SDS011;46749;32.932;-117.130;2023-04-25T01:19:43;2.78;;;1.17;;
60896;SDS011;46749;32.932;-117.130;2023-04-25T01:22:11;2.88;;;1.27;;
60896;SDS011;46749;32.932;-117.130;2023-04-25T01:24:37;2.75;;;1.02;;
60896;SDS011;46749;32.932;-117.130;2023-04-25T01:27:04;3.22;;;1.15;;
60896;SDS011;46749;32.932;-117.130;2023-04-25T01:29:30;2.60;;;0.90;;
60896;SDS011;46749;32.932;-117.130;2023-04-25T01:31:57;3.00;;;1.20;;
60896;SDS011;46749;32.932;-117.130;2023-04-25T01:34:24;3.05;;;1.05;;
60896;SDS011;46749;32.932;-117.130;2023-04-25T01:36:51;3.03;;;1.17;;
60896;SDS011;46749;32.932;-117.130;2023-04-25T01:39:18;2.90;;;1.20;;
60896;SDS011;46749;32.932;-117.130;2023-04-25T01:41:48;4.07;;;1.00;;
60896;SDS011;46749;32.932;-117.130;2023-04-25T01:44:14;2.92;;;1.25;;
60896;SDS011;46749;32.932;-117.130;2023-04-25T01:46:41;1.48;;;0.90;;
60896;SDS011;46749;32.932;-117.130;2023-04-25T01:49:07;1.95;;;1.00;;
60896;SDS011;46749;32.932;-117.130;2023-04-25T01:51:33;4.20;;;1.40;;
60896;SDS011;46749;32.932;-117.130;2023-04-25T01:54:00;2.53;;;0.77;;
60896;SDS011;46749;32.932;-117.130;2023-04-25T01:56:30;3.35;;;1.38;;
60896;SDS011;46749;32.932;-117.130;2023-04-25T01:58:57;2.05;;;0.90;;
60896;SDS011;46749;32.932;-117.130;2023-04-25T02:01:24;3.25;;;1.20;;
60896;SDS011;46749;32.932;-117.130;2023-04-25T02:03:50;3.30;;;1.20;;
60896;SDS011;46749;32.932;-117.130;2023-04-25T02:06:16;3.70;;;1.13;;
60896;SDS011;46749;32.932;-117.130;2023-04-25T02:08:42;4.22;;;1.10;;
60896;SDS011;46749;32.932;-117.130;2023-04-25T02:11:09;2.00;;;0.90;;
60896;SDS011;46749;32.932;-117.130;2023-04-25T02:13:35;3.58;;;1.45;;
60896;SDS011;46749;32.932;-117.130;2023-04-25T02:16:01;4.53;;;1.30;;
60896;SDS011;46749;32.932;-117.130;2023-04-25T02:18:28;3.05;;;1.00;;
60896;SDS011;46749;32.932;-117.130;2023-04-25T02:20:54;2.28;;;1.00;;
60896;SDS011;46749;32.932;-117.130;2023-04-25T02:23:20;3.95;;;1.27;;
60896;SDS011;46749;32.932;-117.130;2023-04-25T02:25:46;2.50;;;1.27;;
60896;SDS011;46749;32.932;-117.130;2023-04-25T02:28:13;3.97;;;1.35;;
60896;SDS011;46749;32.932;-117.130;2023-04-25T02:30:40;2.67;;;1.23;;
60896;SDS011;46749;32.932;-117.130;2023-04-25T02:33:06;2.38;;;1.20;;
60896;SDS011;46749;32.932;-117.130;2023-04-25T02:35:32;2.40;;;1.30;;
60896;SDS011;46749;32.932;-117.130;2023-04-25T02:37:58;2.50;;;1.02;;
60896;SDS011;46749;32.932;-117.130;2023-04-25T02:40:25;2.28;;;1.10;;
60896;SDS011;46749;32.932;-117.130;2023-04-25T02:42:51;4.30;;;1.27;;
60896;SDS011;46749;32.932;-117.130;2023-04-25T02:45:17;2.42;;;0.90;;
60896;SDS011;46749;32.932;-117.130;2023-04-25T02:47:44;4.50;;;1.13;;
60896;SDS011;46749;32.932;-117.130;2023-04-25T02:50:10;3.85;;;1.27;;
60896;SDS011;46749;32.932;-117.130;2023-04-25T02:52:36;2.67;;;1.10;;
60896;SDS011;46749;32.932;-117.130;2023-04-25T02:55:02;2.55;;;1.00;;
60896;SDS011;46749;32.932;-117.130;2023-04-25T02:57:29;4.53;;;1.42;;
60896;SDS011;46749;32.932;-117.130;2023-04-25T02:59:55;3.78;;;1.33;;
60896;SDS011;46749;32.932;-117.130;2023-04-25T03:02:21;4.93;;;1.40;;
60896;SDS011;46749;32.932;-117.130;2023-04-25T03:04:48;3.95;;;1.20;;
60896;SDS011;46749;32.932;-117.130;2023-04-25T03:07:14;4.63;;;1.25;;
60896;SDS011;46749;32.932;-117.130;2023-04-25T03:09:40;3.88;;;1.52;;
60896;SDS011;46749;32.932;-117.130;2023-04-25T03:12:06;4.25;;;1.42;;
60896;SDS011;46749;32.932;-117.130;2023-04-25T03:14:33;5.80;;;1.55;;
60896;SDS011;46749;32.932;-117.130;2023-04-25T03:16:59;3.63;;;1.33;;
60896;SDS011;46749;32.932;-117.130;2023-04-25T03:19:25;4.07;;;1.33;;
60896;SDS011;46749;32.932;-117.130;2023-04-25T03:21:51;3.40;;;1.35;;
60896;SDS011;46749;32.932;-117.130;2023-04-25T03:24:18;4.88;;;1.83;;
60896;SDS011;46749;32.932;-117.130;2023-04-25T03:26:45;7.53;;;1.85;;
60896;SDS011;46749;32.932;-117.130;2023-04-25T03:29:11;5.18;;;1.30;;
60896;SDS011;46749;32.932;-117.130;2023-04-25T03:31:37;6.78;;;1.65;;
60896;SDS011;46749;32.932;-117.130;2023-04-25T03:34:03;4.40;;;1.48;;
60896;SDS011;46749;32.932;-117.130;2023-04-25T03:36:30;6.93;;;1.40;;
60896;SDS011;46749;32.932;-117.130;2023-04-25T03:38:56;4.72;;;1.73;;
60896;SDS011;46749;32.932;-117.130;2023-04-25T03:41:22;4.18;;;1.60;;
60896;SDS011;46749;32.932;-117.130;2023-04-25T03:43:48;4.63;;;1.58;;
60896;SDS011;46749;32.932;-117.130;2023-04-25T03:46:15;6.30;;;1.90;;
60896;SDS011;46749;32.932;-117.130;2023-04-25T03:48:41;4.88;;;1.40;;
60896;SDS011;46749;32.932;-117.130;2023-04-25T03:51:07;5.63;;;1.67;;
60896;SDS011;46749;32.932;-117.130;2023-04-25T03:53:33;3.00;;;1.58;;
60896;SDS011;46749;32.932;-117.130;2023-04-25T03:56:00;5.32;;;1.45;;
60896;SDS011;46749;32.932;-117.130;2023-04-25T03:58:26;3.58;;;1.50;;
60896;SDS011;46749;32.932;-117.130;2023-04-25T04:00:52;4.72;;;1.52;;
60896;SDS011;46749;32.932;-117.130;2023-04-25T04:03:18;4.55;;;1.63;;
60896;SDS011;46749;32.932;-117.130;2023-04-25T04:05:45;5.80;;;1.83;;
60896;SDS011;46749;32.932;-117.130;2023-04-25T04:08:12;3.97;;;1.67;;
60896;SDS011;46749;32.932;-117.130;2023-04-25T04:10:38;3.33;;;1.40;;
60896;SDS011;46749;32.932;-117.130;2023-04-25T04:13:05;3.13;;;1.35;;
60896;SDS011;46749;32.932;-117.130;2023-04-25T04:15:31;4.82;;;1.80;;
60896;SDS011;46749;32.932;-117.130;2023-04-25T04:17:58;3.20;;;1.63;;
60896;SDS011;46749;32.932;-117.130;2023-04-25T04:20:28;8.32;;;1.95;;
60896;SDS011;46749;32.932;-117.130;2023-04-25T04:22:55;3.55;;;1.35;;
60896;SDS011;46749;32.932;-117.130;2023-04-25T04:25:21;6.03;;;1.67;;
60896;SDS011;46749;32.932;-117.130;2023-04-25T04:27:49;5.10;;;1.35;;
60896;SDS011;46749;32.932;-117.130;2023-04-25T04:30:21;3.28;;;1.35;;
60896;SDS011;46749;32.932;-117.130;2023-04-25T04:32:50;4.93;;;1.70;;
60896;SDS011;46749;32.932;-117.130;2023-04-25T04:35:17;3.15;;;1.80;;
60896;SDS011;46749;32.932;-117.130;2023-04-25T04:37:43;5.07;;;1.60;;
60896;SDS011;46749;32.932;-117.130;2023-04-25T04:40:11;4.03;;;1.50;;
60896;SDS011;46749;32.932;-117.130;2023-04-25T04:42:37;3.75;;;1.40;;
60896;SDS011;46749;32.932;-117.130;2023-04-25T04:45:03;6.50;;;1.52;;
60896;SDS011;46749;32.932;-117.130;2023-04-25T04:47:30;3.97;;;1.50;;
60896;SDS011;46749;32.932;-117.130;2023-04-25T04:49:57;4.20;;;1.60;;
60896;SDS011;46749;32.932;-117.130;2023-04-25T04:52:23;4.65;;;1.83;;
60896;SDS011;46749;32.932;-117.130;2023-04-25T04:54:50;5.82;;;1.60;;
60896;SDS011;46749;32.932;-117.130;2023-04-25T04:57:16;5.00;;;1.67;;
60896;SDS011;46749;32.932;-117.130;2023-04-25T04:59:42;5.28;;;1.55;;
60896;SDS011;46749;32.932;-117.130;2023-04-25T05:02:08;5.35;;;1.70;;
60896;SDS011;46749;32.932;-117.130;2023-04-25T05:04:35;3.95;;;1.40;;
60896;SDS011;46749;32.932;-117.130;2023-04-25T05:07:01;4.80;;;1.73;;
60896;SDS011;46749;32.932;-117.130;2023-04-25T05:09:27;4.55;;;2.05;;
60896;SDS011;46749;32.932;-117.130;2023-04-25T05:11:54;4.45;;;1.65;;
60896;SDS011;46749;32.932;-117.130;2023-04-25T05:14:20;3.55;;;1.80;;
60896;SDS011;46749;32.932;-117.130;2023-04-25T05:16:48;5.60;;;2.10;;
60896;SDS011;46749;32.932;-117.130;2023-04-25T05:19:14;3.47;;;1.73;;
60896;SDS011;46749;32.932;-117.130;2023-04-25T05:21:40;4.65;;;1.80;;
60896;SDS011;46749;32.932;-117.130;2023-04-25T05:24:08;2.95;;;1.60;;
60896;SDS011;46749;32.932;-117.130;2023-04-25T05:26:35;4.78;;;1.67;;
60896;SDS011;46749;32.932;-117.130;2023-04-25T05:29:01;6.25;;;1.60;;
60896;SDS011;46749;32.932;-117.130;2023-04-25T05:31:27;6.05;;;1.92;;
60896;SDS011;46749;32.932;-117.130;2023-04-25T05:33:53;4.30;;;1.70;;
60896;SDS011;46749;32.932;-117.130;2023-04-25T05:36:20;6.72;;;2.05;;
60896;SDS011;46749;32.932;-117.130;2023-04-25T05:38:46;5.15;;;2.13;;
60896;SDS011;46749;32.932;-117.130;2023-04-25T05:41:12;3.92;;;1.58;;
60896;SDS011;46749;32.932;-117.130;2023-04-25T05:43:39;8.10;;;2.10;;
60896;SDS011;46749;32.932;-117.130;2023-04-25T05:46:10;6.03;;;2.20;;
60896;SDS011;46749;32.932;-117.130;2023-04-25T05:48:37;3.97;;;1.63;;
60896;SDS011;46749;32.932;-117.130;2023-04-25T05:51:03;3.95;;;1.92;;
60896;SDS011;46749;32.932;-117.130;2023-04-25T05:53:30;4.38;;;1.83;;
60896;SDS011;46749;32.932;-117.130;2023-04-25T05:55:56;5.75;;;2.00;;
60896;SDS011;46749;32.932;-117.130;2023-04-25T05:58:22;3.97;;;1.98;;
60896;SDS011;46749;32.932;-117.130;2023-04-25T06:00:48;5.95;;;2.10;;
60896;SDS011;46749;32.932;-117.130;2023-04-25T06:03:15;4.28;;;2.25;;
60896;SDS011;46749;32.932;-117.130;2023-04-25T06:05:41;5.53;;;2.08;;
60896;SDS011;46749;32.932;-117.130;2023-04-25T06:08:08;7.05;;;2.22;;
60896;SDS011;46749;32.932;-117.130;2023-04-25T06:10:35;6.82;;;2.80;;
60896;SDS011;46749;32.932;-117.130;2023-04-25T06:13:03;5.13;;;2.60;;
60896;SDS011;46749;32.932;-117.130;2023-04-25T06:15:30;4.68;;;2.30;;
60896;SDS011;46749;32.932;-117.130;2023-04-25T06:17:57;6.95;;;2.42;;
60896;SDS011;46749;32.932;-117.130;2023-04-25T06:20:24;9.13;;;2.50;;
60896;SDS011;46749;32.932;-117.130;2023-04-25T06:22:50;6.18;;;2.72;;
60896;SDS011;46749;32.932;-117.130;2023-04-25T06:25:17;6.45;;;2.60;;
60896;SDS011;46749;32.932;-117.130;2023-04-25T06:27:44;5.70;;;2.45;;
60896;SDS011;46749;32.932;-117.130;2023-04-25T06:30:10;6.80;;;2.63;;
60896;SDS011;46749;32.932;-117.130;2023-04-25T06:32:40;5.72;;;2.25;;
60896;SDS011;46749;32.932;-117.130;2023-04-25T06:35:06;6.53;;;2.25;;
60896;SDS011;46749;32.932;-117.130;2023-04-25T06:37:33;7.22;;;2.60;;
60896;SDS011;46749;32.932;-117.130;2023-04-25T06:39:59;6.15;;;2.20;;
60896;SDS011;46749;32.932;-117.130;2023-04-25T06:42:26;7.18;;;2.33;;
60896;SDS011;46749;32.932;-117.130;2023-04-25T06:44:52;5.38;;;2.15;;
60896;SDS011;46749;32.932;-117.130;2023-04-25T06:47:18;6.60;;;2.22;;
60896;SDS011;46749;32.932;-117.130;2023-04-25T06:49:44;6.43;;;2.15;;
60896;SDS011;46749;32.932;-117.130;2023-04-25T06:52:10;3.53;;;1.88;;
60896;SDS011;46749;32.932;-117.130;2023-04-25T06:54:37;5.60;;;2.45;;
60896;SDS011;46749;32.932;-117.130;2023-04-25T06:57:03;4.57;;;2.05;;
60896;SDS011;46749;32.932;-117.130;2023-04-25T06:59:29;5.60;;;2.38;;
60896;SDS011;46749;32.932;-117.130;2023-04-25T07:01:55;6.18;;;2.60;;
60896;SDS011;46749;32.932;-117.130;2023-04-25T07:04:22;6.82;;;2.47;;
60896;SDS011;46749;32.932;-117.130;2023-04-25T07:06:48;6.35;;;1.90;;
60896;SDS011;46749;32.932;-117.130;2023-04-25T07:09:14;6.10;;;2.30;;
60896;SDS011;46749;32.932;-117.130;2023-04-25T07:11:41;8.02;;;2.25;;
60896;SDS011;46749;32.932;-117.130;2023-04-25T07:14:08;6.35;;;2.20;;
60896;SDS011;46749;32.932;-117.130;2023-04-25T07:16:34;7.30;;;2.60;;
60896;SDS011;46749;32.932;-117.130;2023-04-25T07:19:00;8.93;;;2.17;;
60896;SDS011;46749;32.932;-117.130;2023-04-25T07:21:26;4.78;;;2.42;;
60896;SDS011;46749;32.932;-117.130;2023-04-25T07:23:52;7.18;;;2.47;;
60896;SDS011;46749;32.932;-117.130;2023-04-25T07:26:19;6.82;;;1.98;;
60896;SDS011;46749;32.932;-117.130;2023-04-25T07:28:45;5.60;;;2.25;;
60896;SDS011;46749;32.932;-117.130;2023-04-25T07:31:14;6.00;;;1.95;;
60896;SDS011;46749;32.932;-117.130;2023-04-25T07:33:43;7.03;;;2.30;;
60896;SDS011;46749;32.932;-117.130;2023-04-25T07:36:11;6.72;;;2.15;;
60896;SDS011;46749;32.932;-117.130;2023-04-25T07:38:38;6.30;;;2.08;;
60896;SDS011;46749;32.932;-117.130;2023-04-25T07:41:04;7.88;;;2.67;;
60896;SDS011;46749;32.932;-117.130;2023-04-25T07:43:30;4.63;;;1.98;;
60896;SDS011;46749;32.932;-117.130;2023-04-25T07:45:57;4.75;;;2.25;;
60896;SDS011;46749;32.932;-117.130;2023-04-25T07:48:23;5.57;;;1.77;;
60896;SDS011;46749;32.932;-117.130;2023-04-25T07:50:49;5.60;;;1.65;;
60896;SDS011;46749;32.932;-117.130;2023-04-25T07:53:16;4.90;;;1.58;;
60896;SDS011;46749;32.932;-117.130;2023-04-25T07:55:43;5.85;;;1.85;;
60896;SDS011;46749;32.932;-117.130;2023-04-25T07:58:11;4.85;;;1.80;;
60896;SDS011;46749;32.932;-117.130;2023-04-25T08:00:39;5.97;;;2.03;;
60896;SDS011;46749;32.932;-117.130;2023-04-25T08:03:05;5.60;;;1.90;;
60896;SDS011;46749;32.932;-117.130;2023-04-25T08:05:32;4.93;;;1.83;;
60896;SDS011;46749;32.932;-117.130;2023-04-25T08:07:58;6.05;;;2.38;;
60896;SDS011;46749;32.932;-117.130;2023-04-25T08:10:24;4.70;;;1.92;;
60896;SDS011;46749;32.932;-117.130;2023-04-25T08:12:50;4.38;;;2.03;;
60896;SDS011;46749;32.932;-117.130;2023-04-25T08:15:17;3.78;;;1.77;;
60896;SDS011;46749;32.932;-117.130;2023-04-25T08:17:43;5.00;;;1.88;;
60896;SDS011;46749;32.932;-117.130;2023-04-25T08:20:10;5.57;;;1.85;;
60896;SDS011;46749;32.932;-117.130;2023-04-25T08:22:36;3.45;;;1.50;;
60896;SDS011;46749;32.932;-117.130;2023-04-25T08:25:03;6.30;;;1.80;;
60896;SDS011;46749;32.932;-117.130;2023-04-25T08:27:29;4.72;;;1.60;;
60896;SDS011;46749;32.932;-117.130;2023-04-25T08:29:56;5.40;;;1.90;;
60896;SDS011;46749;32.932;-117.130;2023-04-25T08:32:23;7.00;;;1.85;;
60896;SDS011;46749;32.932;-117.130;2023-04-25T08:34:50;3.33;;;1.60;;
60896;SDS011;46749;32.932;-117.130;2023-04-25T08:37:19;4.75;;;1.48;;
60896;SDS011;46749;32.932;-117.130;2023-04-25T08:39:45;6.35;;;2.05;;
60896;SDS011;46749;32.932;-117.130;2023-04-25T08:42:13;7.88;;;2.03;;
60896;SDS011;46749;32.932;-117.130;2023-04-25T08:44:41;4.90;;;1.90;;
60896;SDS011;46749;32.932;-117.130;2023-04-25T08:47:07;5.97;;;1.85;;
60896;SDS011;46749;32.932;-117.130;2023-04-25T08:49:34;3.85;;;1.65;;
60896;SDS011;46749;32.932;-117.130;2023-04-25T08:52:01;6.43;;;1.83;;
60896;SDS011;46749;32.932;-117.130;2023-04-25T08:54:31;6.93;;;2.20;;
60896;SDS011;46749;32.932;-117.130;2023-04-25T08:57:01;3.63;;;1.48;;
60896;SDS011;46749;32.932;-117.130;2023-04-25T08:59:29;4.28;;;1.50;;
60896;SDS011;46749;32.932;-117.130;2023-04-25T09:01:56;7.03;;;2.33;;
60896;SDS011;46749;32.932;-117.130;2023-04-25T09:04:23;5.55;;;2.10;;
60896;SDS011;46749;32.932;-117.130;2023-04-25T09:06:49;5.03;;;2.25;;
60896;SDS011;46749;32.932;-117.130;2023-04-25T09:09:16;4.88;;;1.77;;
60896;SDS011;46749;32.932;-117.130;2023-04-25T09:11:42;5.93;;;1.73;;
60896;SDS011;46749;32.932;-117.130;2023-04-25T09:14:12;4.90;;;1.85;;
60896;SDS011;46749;32.932;-117.130;2023-04-25T09:19:34;5.82;;;2.17;;
60896;SDS011;46749;32.932;-117.130;2023-04-25T09:22:03;5.30;;;1.95;;
60896;SDS011;46749;32.932;-117.130;2023-04-25T09:26:59;4.50;;;1.85;;
60896;SDS011;46749;32.932;-117.130;2023-04-25T09:29:33;4.50;;;1.67;;
60896;SDS011;46749;32.932;-117.130;2023-04-25T09:32:22;5.60;;;2.00;;
60896;SDS011;46749;32.932;-117.130;2023-04-25T09:34:51;5.18;;;1.50;;
60896;SDS011;46749;32.932;-117.130;2023-04-25T09:37:21;5.97;;;1.85;;
60896;SDS011;46749;32.932;-117.130;2023-04-25T09:39:50;5.78;;;1.90;;
60896;SDS011;46749;32.932;-117.130;2023-04-25T09:42:21;5.78;;;1.67;;
60896;SDS011;46749;32.932;-117.130;2023-04-25T09:44:52;4.75;;;1.58;;
60896;SDS011;46749;32.932;-117.130;2023-04-25T09:47:21;5.97;;;1.77;;
60896;SDS011;46749;32.932;-117.130;2023-04-25T09:49:50;5.70;;;1.70;;
60896;SDS011;46749;32.932;-117.130;2023-04-25T09:52:18;6.35;;;1.80;;
60896;SDS011;46749;32.932;-117.130;2023-04-25T09:54:47;5.00;;;1.70;;
60896;SDS011;46749;32.932;-117.130;2023-04-25T09:57:23;5.53;;;1.63;;
60896;SDS011;46749;32.932;-117.130;2023-04-25T10:02:21;4.88;;;1.55;;
60896;SDS011;46749;32.932;-117.130;2023-04-25T10:04:49;5.75;;;1.80;;
60896;SDS011;46749;32.932;-117.130;2023-04-25T10:07:18;4.68;;;1.40;;
60896;SDS011;46749;32.932;-117.130;2023-04-25T10:09:49;5.80;;;1.98;;
60896;SDS011;46749;32.932;-117.130;2023-04-25T10:12:18;2.63;;;1.40;;
60896;SDS011;46749;32.932;-117.130;2023-04-25T10:14:45;7.95;;;2.22;;
60896;SDS011;46749;32.932;-117.130;2023-04-25T10:17:12;7.13;;;2.25;;
60896;SDS011;46749;32.932;-117.130;2023-04-25T10:19:39;4.15;;;1.50;;
60896;SDS011;46749;32.932;-117.130;2023-04-25T10:22:11;4.40;;;1.70;;
60896;SDS011;46749;32.932;-117.130;2023-04-25T10:25:05;4.45;;;1.55;;
60896;SDS011;46749;32.932;-117.130;2023-04-25T10:27:33;5.43;;;1.52;;
60896;SDS011;46749;32.932;-117.130;2023-04-25T10:30:05;3.70;;;1.35;;
60896;SDS011;46749;32.932;-117.130;2023-04-25T10:32:32;7.20;;;1.60;;
60896;SDS011;46749;32.932;-117.130;2023-04-25T10:35:09;4.13;;;1.67;;
60896;SDS011;46749;32.932;-117.130;2023-04-25T10:37:37;3.20;;;1.30;;
60896;SDS011;46749;32.932;-117.130;2023-04-25T10:40:09;5.65;;;1.90;;
60896;SDS011;46749;32.932;-117.130;2023-04-25T10:42:36;6.45;;;1.48;;
60896;SDS011;46749;32.932;-117.130;2023-04-25T10:45:05;3.30;;;1.63;;
60896;SDS011;46749;32.932;-117.130;2023-04-25T10:47:35;5.45;;;1.88;;
60896;SDS011;46749;32.932;-117.130;2023-04-25T10:50:08;4.35;;;1.52;;
60896;SDS011;46749;32.932;-117.130;2023-04-25T10:52:35;3.55;;;1.80;;
60896;SDS011;46749;32.932;-117.130;2023-04-25T10:55:05;6.05;;;1.20;;
60896;SDS011;46749;32.932;-117.130;2023-04-25T10:57:45;7.95;;;1.58;;
60896;SDS011;46749;32.932;-117.130;2023-04-25T11:00:19;5.80;;;1.92;;
60896;SDS011;46749;32.932;-117.130;2023-04-25T11:02:52;4.32;;;1.67;;
60896;SDS011;46749;32.932;-117.130;2023-04-25T11:05:29;8.43;;;1.65;;
60896;SDS011;46749;32.932;-117.130;2023-04-25T11:07:59;6.05;;;1.52;;
60896;SDS011;46749;32.932;-117.130;2023-04-25T11:10:29;4.18;;;1.42;;
60896;SDS011;46749;32.932;-117.130;2023-04-25T11:13:00;4.18;;;1.48;;
60896;SDS011;46749;32.932;-117.130;2023-04-25T11:15:27;6.03;;;1.67;;
60896;SDS011;46749;32.932;-117.130;2023-04-25T11:17:54;4.15;;;1.60;;
60896;SDS011;46749;32.932;-117.130;2023-04-25T11:20:22;8.25;;;1.80;;
60896;SDS011;46749;32.932;-117.130;2023-04-25T11:22:53;4.80;;;1.35;;
60896;SDS011;46749;32.932;-117.130;2023-04-25T11:25:22;6.63;;;1.85;;
60896;SDS011;46749;32.932;-117.130;2023-04-25T11:27:50;5.13;;;1.73;;
60896;SDS011;46749;32.932;-117.130;2023-04-25T11:30:23;4.65;;;1.33;;
60896;SDS011;46749;32.932;-117.130;2023-04-25T11:32:50;4.35;;;1.35;;
60896;SDS011;46749;32.932;-117.130;2023-04-25T11:35:17;4.38;;;2.08;;
60896;SDS011;46749;32.932;-117.130;2023-04-25T11:37:44;7.32;;;1.88;;
60896;SDS011;46749;32.932;-117.130;2023-04-25T11:40:11;6.20;;;1.63;;
60896;SDS011;46749;32.932;-117.130;2023-04-25T11:42:38;6.45;;;1.40;;
60896;SDS011;46749;32.932;-117.130;2023-04-25T11:45:08;4.95;;;1.55;;
60896;SDS011;46749;32.932;-117.130;2023-04-25T11:47:36;3.55;;;1.40;;
60896;SDS011;46749;32.932;-117.130;2023-04-25T11:50:03;5.18;;;1.52;;
60896;SDS011;46749;32.932;-117.130;2023-04-25T11:52:36;3.92;;;1.50;;
60896;SDS011;46749;32.932;-117.130;2023-04-25T11:55:07;4.13;;;1.48;;
60896;SDS011;46749;32.932;-117.130;2023-04-25T11:57:45;4.65;;;1.30;;
60896;SDS011;46749;32.932;-117.130;2023-04-25T12:00:14;4.45;;;1.55;;
60896;SDS011;46749;32.932;-117.130;2023-04-25T12:02:46;5.30;;;1.52;;
60896;SDS011;46749;32.932;-117.130;2023-04-25T12:05:14;4.72;;;1.40;;
60896;SDS011;46749;32.932;-117.130;2023-04-25T12:07:42;3.83;;;1.38;;
60896;SDS011;46749;32.932;-117.130;2023-04-25T12:10:09;7.18;;;1.40;;
60896;SDS011;46749;32.932;-117.130;2023-04-25T12:12:37;6.50;;;1.90;;
60896;SDS011;46749;32.932;-117.130;2023-04-25T12:15:16;6.20;;;1.50;;
60896;SDS011;46749;32.932;-117.130;2023-04-25T12:17:49;4.40;;;1.40;;
60896;SDS011;46749;32.932;-117.130;2023-04-25T12:20:20;6.22;;;1.67;;
60896;SDS011;46749;32.932;-117.130;2023-04-25T12:22:49;4.57;;;1.20;;
60896;SDS011;46749;32.932;-117.130;2023-04-25T12:28:20;3.08;;;1.40;;
60896;SDS011;46749;32.932;-117.130;2023-04-25T12:31:06;3.70;;;1.83;;
60896;SDS011;46749;32.932;-117.130;2023-04-25T12:33:36;4.55;;;1.50;;
60896;SDS011;46749;32.932;-117.130;2023-04-25T12:36:03;4.57;;;1.13;;
60896;SDS011;46749;32.932;-117.130;2023-04-25T12:38:39;3.55;;;1.20;;
60896;SDS011;46749;32.932;-117.130;2023-04-25T12:41:06;4.65;;;1.30;;
60896;SDS011;46749;32.932;-117.130;2023-04-25T12:43:33;3.70;;;1.20;;
60896;SDS011;46749;32.932;-117.130;2023-04-25T12:46:00;4.80;;;1.70;;
60896;SDS011;46749;32.932;-117.130;2023-04-25T12:48:26;3.67;;;1.20;;
60896;SDS011;46749;32.932;-117.130;2023-04-25T12:50:52;2.60;;;1.25;;
60896;SDS011;46749;32.932;-117.130;2023-04-25T12:53:19;4.38;;;1.50;;
60896;SDS011;46749;32.932;-117.130;2023-04-25T12:55:46;5.72;;;2.05;;
60896;SDS011;46749;32.932;-117.130;2023-04-25T12:58:16;4.55;;;1.45;;
60896;SDS011;46749;32.932;-117.130;2023-04-25T13:00:44;4.20;;;1.27;;
60896;SDS011;46749;32.932;-117.130;2023-04-25T13:03:11;3.42;;;1.23;;
60896;SDS011;46749;32.932;-117.130;2023-04-25T13:05:38;3.08;;;1.20;;
60896;SDS011;46749;32.932;-117.130;2023-04-25T13:08:04;4.15;;;1.10;;
60896;SDS011;46749;32.932;-117.130;2023-04-25T13:10:31;3.75;;;1.30;;
60896;SDS011;46749;32.932;-117.130;2023-04-25T13:12:59;4.40;;;1.15;;
60896;SDS011;46749;32.932;-117.130;2023-04-25T13:15:26;3.22;;;1.30;;
60896;SDS011;46749;32.932;-117.130;2023-04-25T13:17:53;4.15;;;1.30;;
60896;SDS011;46749;32.932;-117.130;2023-04-25T13:20:19;3.17;;;1.20;;
60896;SDS011;46749;32.932;-117.130;2023-04-25T13:22:47;3.88;;;1.50;;
60896;SDS011;46749;32.932;-117.130;2023-04-25T13:25:14;3.95;;;1.20;;
60896;SDS011;46749;32.932;-117.130;2023-04-25T13:27:40;4.93;;;1.73;;
60896;SDS011;46749;32.932;-117.130;2023-04-25T13:30:09;4.63;;;1.73;;
60896;SDS011;46749;32.932;-117.130;2023-04-25T13:32:36;4.20;;;1.48;;
60896;SDS011;46749;32.932;-117.130;2023-04-25T13:35:03;3.75;;;1.00;;
60896;SDS011;46749;32.932;-117.130;2023-04-25T13:37:31;5.07;;;1.75;;
60896;SDS011;46749;32.932;-117.130;2023-04-25T13:40:01;3.50;;;1.52;;
60896;SDS011;46749;32.932;-117.130;2023-04-25T13:42:33;5.53;;;1.45;;
60896;SDS011;46749;32.932;-117.130;2023-04-25T13:44:59;3.80;;;1.20;;
60896;SDS011;46749;32.932;-117.130;2023-04-25T13:47:25;5.97;;;1.20;;
60896;SDS011;46749;32.932;-117.130;2023-04-25T13:49:52;4.30;;;1.33;;
60896;SDS011;46749;32.932;-117.130;2023-04-25T13:52:18;6.57;;;1.42;;
60896;SDS011;46749;32.932;-117.130;2023-04-25T13:54:45;4.65;;;1.38;;
60896;SDS011;46749;32.932;-117.130;2023-04-25T13:57:11;4.03;;;1.20;;
60896;SDS011;46749;32.932;-117.130;2023-04-25T13:59:38;3.53;;;1.20;;
60896;SDS011;46749;32.932;-117.130;2023-04-25T14:02:06;3.85;;;1.38;;
60896;SDS011;46749;32.932;-117.130;2023-04-25T14:04:33;4.70;;;1.33;;
60896;SDS011;46749;32.932;-117.130;2023-04-25T14:06:59;4.03;;;1.08;;
60896;SDS011;46749;32.932;-117.130;2023-04-25T14:09:26;4.60;;;1.20;;
60896;SDS011;46749;32.932;-117.130;2023-04-25T14:11:52;4.22;;;1.10;;
60896;SDS011;46749;32.932;-117.130;2023-04-25T14:14:19;3.58;;;1.00;;
60896;SDS011;46749;32.932;-117.130;2023-04-25T14:16:49;3.63;;;1.40;;
60896;SDS011;46749;32.932;-117.130;2023-04-25T14:19:19;3.17;;;1.25;;
60896;SDS011;46749;32.932;-117.130;2023-04-25T14:21:49;5.95;;;1.10;;